sensor_id;sensor_type;location;lat;lon;timestamp;pressure;altitude;pressure_sealevel;temperature;humidity
16094;BME280;8151;47.824;12.092;2023-05-01T00:00:14;96155.06;;;11.48;62.93
16094;BME280;8151;47.824;12.092;2023-05-01T00:02:54;96137.59;;;11.39;63.19
16094;BME280;8151;47.824;12.092;2023-05-01T00:05:22;96131.66;;;11.37;63.45
16094;BME280;8151;47.824;12.092;2023-05-01T00:07:52;96129.97;;;11.36;63.50
16094;BME280;8151;47.824;12.092;2023-05-01T00:10:20;96129.00;;;11.37;63.47
16094;BME280;8151;47.824;12.092;2023-05-01T00:12:50;96124.69;;;11.36;62.92
16094;BME280;8151;47.824;12.092;2023-05-01T00:15:18;96134.00;;;11.32;63.47
16094;BME280;8151;47.824;12.092;2023-05-01T00:17:47;96127.59;;;11.26;63.51
16094;BME280;8151;47.824;12.092;2023-05-01T00:20:16;96124.84;;;11.19;63.08
16094;BME280;8151;47.824;12.092;2023-05-01T00:22:44;96123.91;;;11.12;63.68
16094;BME280;8151;47.824;12.092;2023-05-01T00:25:13;96128.44;;;11.03;63.51
16094;BME280;8151;47.824;12.092;2023-05-01T00:27:46;96124.13;;;11.02;63.45
16094;BME280;8151;47.824;12.092;2023-05-01T00:30:16;96114.09;;;10.98;63.91
16094;BME280;8151;47.824;12.092;2023-05-01T00:32:44;96118.31;;;10.84;64.30
16094;BME280;8151;47.824;12.092;2023-05-01T00:35:12;96113.44;;;10.73;64.63
16094;BME280;8151;47.824;12.092;2023-05-01T00:37:41;96111.25;;;10.76;64.30
16094;BME280;8151;47.824;12.092;2023-05-01T00:40:10;96103.72;;;10.88;63.95
16094;BME280;8151;47.824;12.092;2023-05-01T00:42:39;96102.84;;;10.96;64.41
16094;BME280;8151;47.824;12.092;2023-05-01T00:45:08;96096.66;;;11.03;63.91
16094;BME280;8151;47.824;12.092;2023-05-01T00:47:38;96097.59;;;11.11;63.46
16094;BME280;8151;47.824;12.092;2023-05-01T00:50:08;96101.34;;;11.16;63.87
16094;BME280;8151;47.824;12.092;2023-05-01T00:52:38;96093.31;;;11.10;63.43
16094;BME280;8151;47.824;12.092;2023-05-01T00:55:07;96095.66;;;11.04;63.48
16094;BME280;8151;47.824;12.092;2023-05-01T00:57:36;96091.88;;;10.99;64.08
16094;BME280;8151;47.824;12.092;2023-05-01T01:00:05;96093.63;;;10.92;64.16
16094;BME280;8151;47.824;12.092;2023-05-01T01:02:34;96093.66;;;10.83;64.33
16094;BME280;8151;47.824;12.092;2023-05-01T01:05:05;96087.28;;;10.78;64.41
16094;BME280;8151;47.824;12.092;2023-05-01T01:07:40;96080.25;;;10.62;65.02
16094;BME280;8151;47.824;12.092;2023-05-01T01:10:16;96088.88;;;10.56;64.92
16094;BME280;8151;47.824;12.092;2023-05-01T01:12:53;96085.91;;;10.59;64.71
16094;BME280;8151;47.824;12.092;2023-05-01T01:15:29;96084.25;;;10.58;65.16
16094;BME280;8151;47.824;12.092;2023-05-01T01:18:07;96075.78;;;10.39;65.47
16094;BME280;8151;47.824;12.092;2023-05-01T01:20:40;96074.34;;;10.20;65.97
16094;BME280;8151;47.824;12.092;2023-05-01T01:23:41;96068.03;;;10.21;66.14
16094;BME280;8151;47.824;12.092;2023-05-01T01:26:42;96069.19;;;10.27;65.93
16094;BME280;8151;47.824;12.092;2023-05-01T01:29:46;96065.69;;;10.35;65.25
16094;BME280;8151;47.824;12.092;2023-05-01T01:32:39;96071.78;;;10.43;64.99
16094;BME280;8151;47.824;12.092;2023-05-01T01:35:17;96071.78;;;10.43;64.43
16094;BME280;8151;47.824;12.092;2023-05-01T01:37:50;96068.97;;;10.45;64.67
16094;BME280;8151;47.824;12.092;2023-05-01T01:40:30;96072.44;;;10.46;64.69
16094;BME280;8151;47.824;12.092;2023-05-01T01:43:03;96067.88;;;10.31;64.71
16094;BME280;8151;47.824;12.092;2023-05-01T01:45:36;96062.41;;;10.24;65.34
16094;BME280;8151;47.824;12.092;2023-05-01T01:48:09;96062.25;;;10.26;65.42
16094;BME280;8151;47.824;12.092;2023-05-01T01:50:41;96061.59;;;10.24;65.00
16094;BME280;8151;47.824;12.092;2023-05-01T01:53:14;96064.00;;;10.11;65.46
16094;BME280;8151;47.824;12.092;2023-05-01T01:55:49;96063.34;;;10.09;65.49
16094;BME280;8151;47.824;12.092;2023-05-01T01:58:20;96057.69;;;10.12;65.14
16094;BME280;8151;47.824;12.092;2023-05-01T02:00:52;96068.25;;;10.12;65.08
16094;BME280;8151;47.824;12.092;2023-05-01T02:03:23;96062.91;;;9.97;65.57
16094;BME280;8151;47.824;12.092;2023-05-01T02:05:59;96049.03;;;9.86;65.45
16094;BME280;8151;47.824;12.092;2023-05-01T02:08:30;96051.34;;;9.90;65.78
16094;BME280;8151;47.824;12.092;2023-05-01T02:11:00;96052.66;;;9.94;65.56
16094;BME280;8151;47.824;12.092;2023-05-01T02:13:30;96049.19;;;9.93;65.88
16094;BME280;8151;47.824;12.092;2023-05-01T02:16:02;96043.53;;;9.96;65.58
16094;BME280;8151;47.824;12.092;2023-05-01T02:18:32;96042.88;;;10.02;65.57
16094;BME280;8151;47.824;12.092;2023-05-01T02:21:03;96047.31;;;10.02;65.20
16094;BME280;8151;47.824;12.092;2023-05-01T02:23:32;96043.69;;;10.03;65.24
16094;BME280;8151;47.824;12.092;2023-05-01T02:26:02;96039.94;;;9.97;65.99
16094;BME280;8151;47.824;12.092;2023-05-01T02:28:31;96043.91;;;9.93;65.44
16094;BME280;8151;47.824;12.092;2023-05-01T02:31:01;96037.81;;;9.93;65.37
16094;BME280;8151;47.824;12.092;2023-05-01T02:33:29;96033.66;;;9.90;65.71
16094;BME280;8151;47.824;12.092;2023-05-01T02:35:58;96038.47;;;9.95;65.46
16094;BME280;8151;47.824;12.092;2023-05-01T02:38:30;96031.19;;;9.97;65.77
16094;BME280;8151;47.824;12.092;2023-05-01T02:40:59;96032.81;;;9.98;65.78
16094;BME280;8151;47.824;12.092;2023-05-01T02:43:31;96025.09;;;9.88;66.04
16094;BME280;8151;47.824;12.092;2023-05-01T02:46:02;96024.00;;;9.74;65.96
16094;BME280;8151;47.824;12.092;2023-05-01T02:48:32;96023.56;;;9.62;66.39
16094;BME280;8151;47.824;12.092;2023-05-01T02:51:02;96020.09;;;9.54;66.69
16094;BME280;8151;47.824;12.092;2023-05-01T02:53:32;96012.66;;;9.57;66.11
16094;BME280;8151;47.824;12.092;2023-05-01T02:56:02;96021.06;;;9.61;66.37
16094;BME280;8151;47.824;12.092;2023-05-01T02:58:31;96018.97;;;9.56;66.54
16094;BME280;8151;47.824;12.092;2023-05-01T03:01:00;96013.38;;;9.43;66.49
16094;BME280;8151;47.824;12.092;2023-05-01T03:03:29;96018.00;;;9.41;66.59
16094;BME280;8151;47.824;12.092;2023-05-01T03:05:58;96014.03;;;9.45;66.27
16094;BME280;8151;47.824;12.092;2023-05-01T03:08:26;96017.34;;;9.39;66.39
16094;BME280;8151;47.824;12.092;2023-05-01T03:10:56;96015.41;;;9.33;66.91
16094;BME280;8151;47.824;12.092;2023-05-01T03:13:25;96016.38;;;9.32;67.03
16094;BME280;8151;47.824;12.092;2023-05-01T03:15:54;96011.59;;;9.35;67.04
16094;BME280;8151;47.824;12.092;2023-05-01T03:18:22;96005.97;;;9.38;66.78
16094;BME280;8151;47.824;12.092;2023-05-01T03:20:51;96001.50;;;9.39;66.35
16094;BME280;8151;47.824;12.092;2023-05-01T03:23:19;96005.50;;;9.35;66.34
16094;BME280;8151;47.824;12.092;2023-05-01T03:25:48;96005.13;;;9.38;67.01
16094;BME280;8151;47.824;12.092;2023-05-01T03:28:18;96005.78;;;9.40;67.01
16094;BME280;8151;47.824;12.092;2023-05-01T03:30:48;95999.16;;;9.44;66.51
16094;BME280;8151;47.824;12.092;2023-05-01T03:33:17;96000.19;;;9.43;67.02
16094;BME280;8151;47.824;12.092;2023-05-01T03:35:46;95996.88;;;9.41;66.44
16094;BME280;8151;47.824;12.092;2023-05-01T03:38:15;95999.84;;;9.38;66.60
16094;BME280;8151;47.824;12.092;2023-05-01T03:40:43;96013.06;;;9.38;66.52
16094;BME280;8151;47.824;12.092;2023-05-01T03:43:11;96010.78;;;9.35;67.26
16094;BME280;8151;47.824;12.092;2023-05-01T03:45:41;96005.50;;;9.35;67.18
16094;BME280;8151;47.824;12.092;2023-05-01T03:48:11;95997.56;;;9.35;67.32
16094;BME280;8151;47.824;12.092;2023-05-01T03:50:39;95997.22;;;9.38;66.97
16094;BME280;8151;47.824;12.092;2023-05-01T03:53:08;95995.41;;;9.38;67.25
16094;BME280;8151;47.824;12.092;2023-05-01T03:55:36;95985.03;;;9.37;66.72
16094;BME280;8151;47.824;12.092;2023-05-01T03:58:06;95991.63;;;9.33;66.57
16094;BME280;8151;47.824;12.092;2023-05-01T04:00:34;95996.41;;;9.37;67.15
16094;BME280;8151;47.824;12.092;2023-05-01T04:03:04;95990.09;;;9.46;66.44
16094;BME280;8151;47.824;12.092;2023-05-01T04:05:33;95990.75;;;9.49;66.30
16094;BME280;8151;47.824;12.092;2023-05-01T04:08:02;95993.59;;;9.39;66.87
16094;BME280;8151;47.824;12.092;2023-05-01T04:10:30;95993.28;;;9.34;66.93
16094;BME280;8151;47.824;12.092;2023-05-01T04:12:59;95989.81;;;9.33;67.25
16094;BME280;8151;47.824;12.092;2023-05-01T04:15:27;95995.59;;;9.37;66.70
16094;BME280;8151;47.824;12.092;2023-05-01T04:18:06;95996.06;;;9.40;66.65
16094;BME280;8151;47.824;12.092;2023-05-01T04:20:35;95990.78;;;9.40;66.79
16094;BME280;8151;47.824;12.092;2023-05-01T04:23:04;95998.19;;;9.45;66.48
16094;BME280;8151;47.824;12.092;2023-05-01T04:25:32;96002.78;;;9.51;66.18
16094;BME280;8151;47.824;12.092;2023-05-01T04:28:00;95992.91;;;9.45;66.45
16094;BME280;8151;47.824;12.092;2023-05-01T04:30:30;95998.06;;;9.38;66.65
16094;BME280;8151;47.824;12.092;2023-05-01T04:32:59;96004.47;;;9.36;67.10
16094;BME280;8151;47.824;12.092;2023-05-01T04:35:30;96002.00;;;9.34;67.28
16094;BME280;8151;47.824;12.092;2023-05-01T04:37:59;96002.84;;;9.35;67.46
16094;BME280;8151;47.824;12.092;2023-05-01T04:40:27;96012.06;;;9.39;67.07
16094;BME280;8151;47.824;12.092;2023-05-01T04:42:56;96004.16;;;9.39;67.44
16094;BME280;8151;47.824;12.092;2023-05-01T04:45:24;96006.16;;;9.37;67.62
16094;BME280;8151;47.824;12.092;2023-05-01T04:47:52;96014.88;;;9.37;67.32
16094;BME280;8151;47.824;12.092;2023-05-01T04:50:21;96008.09;;;9.43;67.66
16094;BME280;8151;47.824;12.092;2023-05-01T04:52:51;96007.78;;;9.46;67.65
16094;BME280;8151;47.824;12.092;2023-05-01T04:55:20;96008.75;;;9.45;67.51
16094;BME280;8151;47.824;12.092;2023-05-01T04:57:49;96019.19;;;9.38;67.40
16094;BME280;8151;47.824;12.092;2023-05-01T05:00:18;96010.59;;;9.28;68.20
16094;BME280;8151;47.824;12.092;2023-05-01T05:02:47;96014.75;;;9.31;67.97
16094;BME280;8151;47.824;12.092;2023-05-01T05:05:15;96018.00;;;9.41;67.67
16094;BME280;8151;47.824;12.092;2023-05-01T05:07:44;96014.16;;;9.52;67.85
16094;BME280;8151;47.824;12.092;2023-05-01T05:10:14;96012.13;;;9.70;67.62
16094;BME280;8151;47.824;12.092;2023-05-01T05:12:52;96012.25;;;9.85;66.92
16094;BME280;8151;47.824;12.092;2023-05-01T05:15:20;96013.31;;;9.99;66.60
16094;BME280;8151;47.824;12.092;2023-05-01T05:17:49;96012.78;;;10.03;67.38
16094;BME280;8151;47.824;12.092;2023-05-01T05:20:17;96010.75;;;10.14;67.20
16094;BME280;8151;47.824;12.092;2023-05-01T05:22:46;96013.00;;;10.25;67.09
16094;BME280;8151;47.824;12.092;2023-05-01T05:25:16;96007.72;;;10.33;66.98
16094;BME280;8151;47.824;12.092;2023-05-01T05:27:44;96010.16;;;10.35;67.13
16094;BME280;8151;47.824;12.092;2023-05-01T05:30:13;96003.59;;;10.31;67.19
16094;BME280;8151;47.824;12.092;2023-05-01T05:32:41;96014.66;;;10.26;67.71
16094;BME280;8151;47.824;12.092;2023-05-01T05:35:10;96012.66;;;10.28;67.44
16094;BME280;8151;47.824;12.092;2023-05-01T05:37:38;96012.16;;;10.33;67.36
16094;BME280;8151;47.824;12.092;2023-05-01T05:40:09;96008.88;;;10.31;67.59
16094;BME280;8151;47.824;12.092;2023-05-01T05:42:40;96012.78;;;10.43;68.03
16094;BME280;8151;47.824;12.092;2023-05-01T05:45:09;96015.47;;;10.58;67.86
16094;BME280;8151;47.824;12.092;2023-05-01T05:47:37;96019.34;;;10.70;67.61
16094;BME280;8151;47.824;12.092;2023-05-01T05:50:07;96014.34;;;10.75;67.41
16094;BME280;8151;47.824;12.092;2023-05-01T05:52:36;96013.88;;;10.72;67.67
16094;BME280;8151;47.824;12.092;2023-05-01T05:55:05;96011.34;;;10.78;67.74
16094;BME280;8151;47.824;12.092;2023-05-01T05:57:34;96016.75;;;10.85;67.32
16094;BME280;8151;47.824;12.092;2023-05-01T06:00:06;96016.25;;;10.81;67.49
16094;BME280;8151;47.824;12.092;2023-05-01T06:02:36;96012.38;;;10.92;67.58
16094;BME280;8151;47.824;12.092;2023-05-01T06:05:05;96021.34;;;11.06;67.85
16094;BME280;8151;47.824;12.092;2023-05-01T06:07:33;96019.72;;;11.20;67.56
16094;BME280;8151;47.824;12.092;2023-05-01T06:10:02;96019.13;;;11.33;67.42
16094;BME280;8151;47.824;12.092;2023-05-01T06:12:33;96022.78;;;11.47;66.86
16094;BME280;8151;47.824;12.092;2023-05-01T06:15:08;96015.53;;;11.55;66.95
16094;BME280;8151;47.824;12.092;2023-05-01T06:17:37;96021.59;;;11.64;66.81
16094;BME280;8151;47.824;12.092;2023-05-01T06:20:07;96012.72;;;11.72;66.75
16094;BME280;8151;47.824;12.092;2023-05-01T06:22:36;96013.81;;;11.77;66.49
16094;BME280;8151;47.824;12.092;2023-05-01T06:25:05;96015.28;;;11.80;66.63
16094;BME280;8151;47.824;12.092;2023-05-01T06:27:33;96017.75;;;11.81;66.63
16094;BME280;8151;47.824;12.092;2023-05-01T06:30:02;96012.38;;;11.90;66.67
16094;BME280;8151;47.824;12.092;2023-05-01T06:32:33;96018.13;;;11.93;66.54
16094;BME280;8151;47.824;12.092;2023-05-01T06:35:02;96016.75;;;11.97;66.53
16094;BME280;8151;47.824;12.092;2023-05-01T06:37:31;96015.38;;;12.01;66.33
16094;BME280;8151;47.824;12.092;2023-05-01T06:40:00;96013.63;;;12.09;66.43
16094;BME280;8151;47.824;12.092;2023-05-01T06:42:30;96001.44;;;12.14;66.18
16094;BME280;8151;47.824;12.092;2023-05-01T06:44:59;96010.94;;;12.24;66.47
16094;BME280;8151;47.824;12.092;2023-05-01T06:47:28;96015.94;;;12.33;66.28
16094;BME280;8151;47.824;12.092;2023-05-01T06:49:58;96006.84;;;12.43;66.44
16094;BME280;8151;47.824;12.092;2023-05-01T06:52:30;96008.53;;;12.50;66.38
16094;BME280;8151;47.824;12.092;2023-05-01T06:55:00;96015.78;;;12.56;66.33
16094;BME280;8151;47.824;12.092;2023-05-01T06:57:28;96015.97;;;12.55;66.45
16094;BME280;8151;47.824;12.092;2023-05-01T06:59:57;96022.06;;;12.55;66.50
16094;BME280;8151;47.824;12.092;2023-05-01T07:02:25;96017.47;;;12.64;66.42
16094;BME280;8151;47.824;12.092;2023-05-01T07:04:54;96017.53;;;12.71;66.23
16094;BME280;8151;47.824;12.092;2023-05-01T07:07:24;96015.50;;;12.73;65.97
16094;BME280;8151;47.824;12.092;2023-05-01T07:09:52;96014.94;;;12.77;65.94
16094;BME280;8151;47.824;12.092;2023-05-01T07:12:21;96023.34;;;12.81;65.84
16094;BME280;8151;47.824;12.092;2023-05-01T07:14:49;96021.53;;;12.82;65.96
16094;BME280;8151;47.824;12.092;2023-05-01T07:17:18;96025.81;;;12.83;66.05
16094;BME280;8151;47.824;12.092;2023-05-01T07:19:47;96018.47;;;12.85;65.95
16094;BME280;8151;47.824;12.092;2023-05-01T07:22:16;96025.25;;;12.87;65.94
16094;BME280;8151;47.824;12.092;2023-05-01T07:24:46;96022.28;;;12.97;65.94
16094;BME280;8151;47.824;12.092;2023-05-01T07:27:14;96023.56;;;13.08;65.92
16094;BME280;8151;47.824;12.092;2023-05-01T07:29:43;96023.22;;;13.17;65.85
16094;BME280;8151;47.824;12.092;2023-05-01T07:32:11;96015.75;;;13.28;65.71
16094;BME280;8151;47.824;12.092;2023-05-01T07:34:40;96014.00;;;13.35;65.59
16094;BME280;8151;47.824;12.092;2023-05-01T07:37:08;96016.06;;;13.39;65.45
16094;BME280;8151;47.824;12.092;2023-05-01T07:39:37;96006.28;;;13.47;65.64
16094;BME280;8151;47.824;12.092;2023-05-01T07:42:07;96014.53;;;13.58;65.35
16094;BME280;8151;47.824;12.092;2023-05-01T07:44:35;96015.22;;;13.67;65.21
16094;BME280;8151;47.824;12.092;2023-05-01T07:47:04;96016.06;;;13.74;65.26
16094;BME280;8151;47.824;12.092;2023-05-01T07:49:35;96010.75;;;13.74;65.41
16094;BME280;8151;47.824;12.092;2023-05-01T07:52:04;96007.50;;;13.79;65.40
16094;BME280;8151;47.824;12.092;2023-05-01T07:54:34;96011.66;;;13.88;65.18
16094;BME280;8151;47.824;12.092;2023-05-01T07:57:05;96010.66;;;13.96;65.21
16094;BME280;8151;47.824;12.092;2023-05-01T07:59:34;96012.91;;;13.99;65.17
16094;BME280;8151;47.824;12.092;2023-05-01T08:02:03;96018.91;;;14.08;64.93
16094;BME280;8151;47.824;12.092;2023-05-01T08:04:33;96011.13;;;14.13;64.94
16094;BME280;8151;47.824;12.092;2023-05-01T08:07:02;96021.00;;;14.19;64.65
16094;BME280;8151;47.824;12.092;2023-05-01T08:09:30;96021.81;;;14.26;64.63
16094;BME280;8151;47.824;12.092;2023-05-01T08:12:00;96016.31;;;14.34;64.65
16094;BME280;8151;47.824;12.092;2023-05-01T08:14:29;96017.78;;;14.44;64.49
16094;BME280;8151;47.824;12.092;2023-05-01T08:16:59;96013.69;;;14.48;64.04
16094;BME280;8151;47.824;12.092;2023-05-01T08:19:28;96022.28;;;14.50;64.20
16094;BME280;8151;47.824;12.092;2023-05-01T08:21:56;96025.38;;;14.53;64.11
16094;BME280;8151;47.824;12.092;2023-05-01T08:24:24;96020.72;;;14.62;64.54
16094;BME280;8151;47.824;12.092;2023-05-01T08:26:53;96017.47;;;14.73;64.41
16094;BME280;8151;47.824;12.092;2023-05-01T08:29:22;96016.84;;;14.85;64.75
16094;BME280;8151;47.824;12.092;2023-05-01T08:31:51;96025.06;;;14.90;64.58
16094;BME280;8151;47.824;12.092;2023-05-01T08:34:21;96022.59;;;14.95;64.92
16094;BME280;8151;47.824;12.092;2023-05-01T08:36:50;96018.50;;;15.06;65.13
16094;BME280;8151;47.824;12.092;2023-05-01T08:39:18;96019.13;;;15.21;64.69
16094;BME280;8151;47.824;12.092;2023-05-01T08:41:46;96019.91;;;15.35;64.52
16094;BME280;8151;47.824;12.092;2023-05-01T08:44:16;96013.56;;;15.43;64.26
16094;BME280;8151;47.824;12.092;2023-05-01T08:46:46;96020.31;;;15.52;64.47
16094;BME280;8151;47.824;12.092;2023-05-01T08:49:16;96022.56;;;15.62;64.38
16094;BME280;8151;47.824;12.092;2023-05-01T08:51:46;96020.50;;;15.70;64.33
16094;BME280;8151;47.824;12.092;2023-05-01T08:54:19;96019.06;;;15.81;64.21
16094;BME280;8151;47.824;12.092;2023-05-01T08:56:50;96027.88;;;15.88;63.91
16094;BME280;8151;47.824;12.092;2023-05-01T08:59:22;96022.72;;;15.87;64.08
16094;BME280;8151;47.824;12.092;2023-05-01T09:01:51;96019.88;;;15.82;63.90
16094;BME280;8151;47.824;12.092;2023-05-01T09:04:20;96018.44;;;15.86;63.91
16094;BME280;8151;47.824;12.092;2023-05-01T09:06:52;96018.63;;;15.91;64.03
16094;BME280;8151;47.824;12.092;2023-05-01T09:09:22;96017.19;;;15.88;64.30
16094;BME280;8151;47.824;12.092;2023-05-01T09:11:51;96019.25;;;15.86;64.54
16094;BME280;8151;47.824;12.092;2023-05-01T09:14:21;96019.47;;;15.85;64.58
16094;BME280;8151;47.824;12.092;2023-05-01T09:16:50;96020.47;;;15.84;64.50
16094;BME280;8151;47.824;12.092;2023-05-01T09:19:19;96022.53;;;15.82;64.70
16094;BME280;8151;47.824;12.092;2023-05-01T09:21:47;96016.38;;;15.88;64.50
16094;BME280;8151;47.824;12.092;2023-05-01T09:24:17;96021.69;;;15.94;64.54
16094;BME280;8151;47.824;12.092;2023-05-01T09:26:46;96011.63;;;16.03;64.50
16094;BME280;8151;47.824;12.092;2023-05-01T09:29:36;96015.50;;;16.07;64.39
16094;BME280;8151;47.824;12.092;2023-05-01T09:32:15;96017.72;;;16.10;64.26
16094;BME280;8151;47.824;12.092;2023-05-01T09:34:44;96019.97;;;16.13;64.39
16094;BME280;8151;47.824;12.092;2023-05-01T09:37:24;96018.31;;;16.12;64.66
16094;BME280;8151;47.824;12.092;2023-05-01T09:40:05;96020.16;;;16.19;64.73
16094;BME280;8151;47.824;12.092;2023-05-01T09:42:35;96018.47;;;16.24;64.70
16094;BME280;8151;47.824;12.092;2023-05-01T09:45:10;96012.78;;;16.21;64.54
16094;BME280;8151;47.824;12.092;2023-05-01T09:47:40;96018.13;;;16.14;64.81
16094;BME280;8151;47.824;12.092;2023-05-01T09:50:28;96013.19;;;16.11;64.89
16094;BME280;8151;47.824;12.092;2023-05-01T09:52:57;96018.78;;;16.09;65.11
16094;BME280;8151;47.824;12.092;2023-05-01T09:55:27;96014.44;;;16.15;64.83
16094;BME280;8151;47.824;12.092;2023-05-01T09:57:55;96013.38;;;16.16;64.97
16094;BME280;8151;47.824;12.092;2023-05-01T10:00:25;96014.81;;;16.19;65.06
16094;BME280;8151;47.824;12.092;2023-05-01T10:02:54;96017.25;;;16.27;65.11
16094;BME280;8151;47.824;12.092;2023-05-01T10:05:22;96010.00;;;16.34;65.17
16094;BME280;8151;47.824;12.092;2023-05-01T10:07:56;96017.22;;;16.33;64.98
16094;BME280;8151;47.824;12.092;2023-05-01T10:10:24;96022.13;;;16.37;65.32
16094;BME280;8151;47.824;12.092;2023-05-01T10:12:54;96021.47;;;16.41;65.01
16094;BME280;8151;47.824;12.092;2023-05-01T10:15:35;96028.84;;;16.46;65.03
16094;BME280;8151;47.824;12.092;2023-05-01T10:18:03;96019.63;;;16.42;64.92
16094;BME280;8151;47.824;12.092;2023-05-01T10:20:32;96020.69;;;16.41;65.03
16094;BME280;8151;47.824;12.092;2023-05-01T10:23:01;96014.47;;;16.47;65.08
16094;BME280;8151;47.824;12.092;2023-05-01T10:25:31;96026.09;;;16.59;64.96
16094;BME280;8151;47.824;12.092;2023-05-01T10:28:03;96020.75;;;16.66;64.72
16094;BME280;8151;47.824;12.092;2023-05-01T10:30:33;96020.28;;;16.69;64.62
16094;BME280;8151;47.824;12.092;2023-05-01T10:33:04;96020.28;;;16.76;64.65
16094;BME280;8151;47.824;12.092;2023-05-01T10:35:36;96022.50;;;16.85;65.17
16094;BME280;8151;47.824;12.092;2023-05-01T10:38:07;96017.94;;;16.92;64.40
16094;BME280;8151;47.824;12.092;2023-05-01T10:40:44;96015.38;;;17.04;64.29
16094;BME280;8151;47.824;12.092;2023-05-01T10:43:16;96015.69;;;17.15;64.21
16094;BME280;8151;47.824;12.092;2023-05-01T10:45:45;96013.13;;;17.26;63.95
16094;BME280;8151;47.824;12.092;2023-05-01T10:48:51;96005.88;;;17.34;63.86
16094;BME280;8151;47.824;12.092;2023-05-01T10:51:21;96006.63;;;17.41;63.76
16094;BME280;8151;47.824;12.092;2023-05-01T10:54:21;96007.00;;;17.44;63.80
16094;BME280;8151;47.824;12.092;2023-05-01T10:56:54;96013.41;;;17.43;63.77
16094;BME280;8151;47.824;12.092;2023-05-01T10:59:24;96007.50;;;17.35;63.68
16094;BME280;8151;47.824;12.092;2023-05-01T11:01:53;96010.03;;;17.29;63.78
16094;BME280;8151;47.824;12.092;2023-05-01T11:04:48;96009.78;;;17.31;63.49
16094;BME280;8151;47.824;12.092;2023-05-01T11:07:17;96010.38;;;17.33;63.52
16094;BME280;8151;47.824;12.092;2023-05-01T11:09:47;96003.91;;;17.22;63.41
16094;BME280;8151;47.824;12.092;2023-05-01T11:12:48;96009.84;;;17.24;63.04
16094;BME280;8151;47.824;12.092;2023-05-01T11:15:27;96007.19;;;17.24;63.14
16094;BME280;8151;47.824;12.092;2023-05-01T11:17:56;96007.97;;;17.31;63.00
16094;BME280;8151;47.824;12.092;2023-05-01T11:20:58;96006.69;;;17.34;62.83
16094;BME280;8151;47.824;12.092;2023-05-01T11:23:28;96005.81;;;17.40;62.95
16094;BME280;8151;47.824;12.092;2023-05-01T11:26:01;95998.97;;;17.44;62.97
16094;BME280;8151;47.824;12.092;2023-05-01T11:28:31;95992.31;;;17.54;62.98
16094;BME280;8151;47.824;12.092;2023-05-01T11:31:02;95999.44;;;17.60;62.90
16094;BME280;8151;47.824;12.092;2023-05-01T11:33:30;96007.03;;;17.63;63.05
16094;BME280;8151;47.824;12.092;2023-05-01T11:36:00;95992.19;;;17.67;62.78
16094;BME280;8151;47.824;12.092;2023-05-01T11:38:28;95989.41;;;17.55;62.72
16094;BME280;8151;47.824;12.092;2023-05-01T11:41:01;95995.97;;;17.59;62.58
16094;BME280;8151;47.824;12.092;2023-05-01T11:43:30;95994.94;;;17.60;62.50
16094;BME280;8151;47.824;12.092;2023-05-01T11:45:59;95998.03;;;17.57;62.35
16094;BME280;8151;47.824;12.092;2023-05-01T11:48:32;95993.19;;;17.47;62.70
16094;BME280;8151;47.824;12.092;2023-05-01T11:51:00;95992.53;;;17.52;62.42
16094;BME280;8151;47.824;12.092;2023-05-01T11:53:38;95996.63;;;17.55;62.28
16094;BME280;8151;47.824;12.092;2023-05-01T11:56:18;95994.31;;;17.58;62.17
16094;BME280;8151;47.824;12.092;2023-05-01T11:58:55;95993.16;;;17.73;62.03
16094;BME280;8151;47.824;12.092;2023-05-01T12:01:32;95999.53;;;17.71;61.90
16094;BME280;8151;47.824;12.092;2023-05-01T12:04:05;95991.50;;;17.71;61.89
16094;BME280;8151;47.824;12.092;2023-05-01T12:06:36;95996.78;;;17.78;62.04
16094;BME280;8151;47.824;12.092;2023-05-01T12:09:10;95993.66;;;17.81;61.76
16094;BME280;8151;47.824;12.092;2023-05-01T12:11:44;95994.34;;;17.77;61.71
16094;BME280;8151;47.824;12.092;2023-05-01T12:14:13;95997.97;;;17.82;61.78
16094;BME280;8151;47.824;12.092;2023-05-01T12:16:43;95990.75;;;17.89;61.80
16094;BME280;8151;47.824;12.092;2023-05-01T12:19:14;95999.19;;;17.86;61.87
16094;BME280;8151;47.824;12.092;2023-05-01T12:21:43;95991.28;;;17.73;61.94
16094;BME280;8151;47.824;12.092;2023-05-01T12:24:13;95984.44;;;17.59;62.11
16094;BME280;8151;47.824;12.092;2023-05-01T12:26:42;95992.59;;;17.45;62.35
16094;BME280;8151;47.824;12.092;2023-05-01T12:29:11;95995.78;;;17.36;62.69
16094;BME280;8151;47.824;12.092;2023-05-01T12:31:45;95990.25;;;17.30;62.61
16094;BME280;8151;47.824;12.092;2023-05-01T12:34:15;95996.50;;;17.24;62.57
16094;BME280;8151;47.824;12.092;2023-05-01T12:36:52;96001.03;;;17.24;62.67
16094;BME280;8151;47.824;12.092;2023-05-01T12:39:21;96001.84;;;17.24;62.71
16094;BME280;8151;47.824;12.092;2023-05-01T12:41:50;96007.00;;;17.19;62.69
16094;BME280;8151;47.824;12.092;2023-05-01T12:44:22;96002.41;;;17.08;62.70
16094;BME280;8151;47.824;12.092;2023-05-01T12:46:55;96005.31;;;17.00;62.91
16094;BME280;8151;47.824;12.092;2023-05-01T12:49:25;96002.09;;;16.91;62.95
16094;BME280;8151;47.824;12.092;2023-05-01T12:51:56;96000.53;;;16.83;63.06
16094;BME280;8151;47.824;12.092;2023-05-01T12:54:28;95999.78;;;16.69;63.28
16094;BME280;8151;47.824;12.092;2023-05-01T12:57:04;95998.97;;;16.62;63.33
16094;BME280;8151;47.824;12.092;2023-05-01T12:59:35;95997.00;;;16.51;63.48
16094;BME280;8151;47.824;12.092;2023-05-01T13:02:07;95999.25;;;16.47;63.60
16094;BME280;8151;47.824;12.092;2023-05-01T13:04:38;95998.88;;;16.44;63.64
16094;BME280;8151;47.824;12.092;2023-05-01T13:07:10;95990.91;;;16.37;63.60
16094;BME280;8151;47.824;12.092;2023-05-01T13:09:50;95991.56;;;16.32;63.73
16094;BME280;8151;47.824;12.092;2023-05-01T13:12:26;95993.38;;;16.32;63.90
16094;BME280;8151;47.824;12.092;2023-05-01T13:14:55;95995.84;;;16.33;64.14
16094;BME280;8151;47.824;12.092;2023-05-01T13:17:25;95991.78;;;16.31;64.93
16094;BME280;8151;47.824;12.092;2023-05-01T13:19:56;95997.97;;;16.18;65.39
16094;BME280;8151;47.824;12.092;2023-05-01T13:22:32;95994.34;;;16.06;66.16